ADDS METAR Data INFO
IDs: Format: Raw Decoded Include TAF

Data at: 2338 UTC 15 Dec 2017

KSCD 152315Z AUTO 00000KT 10SM CLR 04/M02 A3020 RMK AO2 T00381020
KSCD 152255Z AUTO 00000KT 10SM CLR 04/M02 A3020 RMK AO2 T00401018
KSCD 152235Z AUTO 31004KT 10SM CLR 04/M02 A3020 RMK AO2 T00431020
KSCD 152215Z AUTO 32003KT 10SM CLR 05/M02 A3019 RMK AO2 T00451019
KSCD 152155Z AUTO 33003KT 10SM CLR 05/M02 A3018 RMK AO2 T00471020
KSCD 152135Z AUTO 33003KT 10SM CLR 05/M02 A3018 RMK AO2 T00481020
KSCD 152115Z AUTO 30004KT 10SM CLR 05/M02 A3018 RMK AO2 T00501017
KSCD 152055Z AUTO 32003KT 10SM CLR 05/M02 A3018 RMK AO2 T00471020
KSCD 152035Z AUTO 32005KT 10SM CLR 05/M02 A3018 RMK AO2 T00491019
KSCD 152015Z AUTO 35003KT 10SM CLR 05/M02 A3018 RMK AO2 T00501020
KSCD 151955Z AUTO 33004KT 10SM CLR 05/M02 A3018 RMK AO2 T00481021
KSCD 151935Z AUTO 33005KT 10SM CLR 05/M02 A3017 RMK AO2 T00491021
KSCD 151915Z AUTO 31007KT 10SM CLR 05/M02 A3018 RMK AO2 T00491023
KSCD 151855Z AUTO 33007KT 10SM CLR 05/M02 A3018 RMK AO2 T00501023
KSCD 151835Z AUTO 31005KT 10SM CLR 06/M02 A3018 RMK AO2 T00581018
KSCD 151815Z AUTO 33006KT 10SM CLR 06/M02 A3018 RMK AO2 T00551020
KSCD 151755Z AUTO 34007KT 10SM CLR 06/M02 A3019 RMK AO2 T00611018 10062 20021
KSCD 151735Z AUTO 34006KT 10SM CLR 06/M02 A3020 RMK AO2 T00581021
KSCD 151715Z AUTO 34006KT 10SM CLR 06/M02 A3020 RMK AO2 T00551022
KSCD 151655Z AUTO 34006KT 10SM CLR 06/M02 A3019 RMK AO2 T00591019
KSCD 151635Z AUTO 35007KT 10SM CLR 05/M02 A3019 RMK AO2 T00501022
KSCD 151615Z AUTO 34008KT 290V010 10SM CLR 05/M02 A3020 RMK AO2 T00481021
KSCD 151555Z AUTO 33006KT 10SM CLR 05/M02 A3020 RMK AO2 T00451023
KSCD 151535Z AUTO 35007KT 10SM CLR 05/M02 A3020 RMK AO2 T00471022
KSCD 151515Z AUTO 34005KT 10SM CLR 04/M02 A3018 RMK AO2 T00401020
KSCD 151455Z AUTO 02006KT 10SM CLR 04/M02 A3017 RMK AO2 T00351019
KSCD 151435Z AUTO 03005KT 10SM CLR 03/M02 A3015 RMK AO2 T00301016
KSCD 151415Z AUTO 02004KT 10SM CLR 03/M02 A3015 RMK AO2 T00261017
KSCD 151355Z AUTO 00000KT 10SM CLR 03/M01 A3014 RMK AO2 T00251015
KSCD 151335Z AUTO 02003KT 10SM CLR 02/M01 A3013 RMK AO2 T00231015
KSCD 151315Z AUTO 01004KT 10SM CLR 02/M01 A3012 RMK AO2 T00211015
KSCD 151255Z AUTO 03004KT 10SM CLR 02/M01 A3011 RMK AO2 T00211015
KSCD 151235Z AUTO 36003KT 10SM CLR 02/M01 A3010 RMK AO2 T00211015
KSCD 151215Z AUTO 00000KT 10SM CLR 02/M01 A3010 RMK AO2 T00221010
KSCD 151155Z AUTO 00000KT 10SM CLR 03/M01 A3009 RMK AO2 T00251008 10052 20020
KSCD 151135Z AUTO 01003KT 10SM CLR 03/M01 A3008 RMK AO2 T00271006
KSCD 151115Z AUTO 35004KT 10SM CLR 03/00 A3008 RMK AO2 T00261002
KSCD 151055Z AUTO 33003KT 10SM CLR 03/00 A3008 RMK AO2 T00310000
KSCD 151035Z AUTO 34004KT 10SM CLR 03/00 A3007 RMK AO2 T00320001
KSCD 151015Z AUTO 34005KT 10SM CLR 04/01 A3007 RMK AO2 T00350005
KSCD 150955Z AUTO 34003KT 10SM CLR 04/01 A3007 RMK AO2 T00390012
KSCD 150935Z AUTO 36004KT 10SM CLR 04/02 A3006 RMK AO2 T00410017
KSCD 150915Z AUTO 00000KT 10SM CLR 05/02 A3006 RMK AO2 T00460020
KSCD 150855Z AUTO 36004KT 10SM CLR 05/02 A3005 RMK AO2 T00490022
KSCD 150835Z AUTO 01003KT 10SM CLR 05/04 A3005 RMK AO2 T00510037
KSCD 150815Z AUTO 02003KT 10SM CLR 03/03 A3004 RMK AO2 T00290029
KSCD 150755Z AUTO 00000KT 3SM BR CLR 03/03 A3004 RMK AO2 T00280028
KSCD 150735Z AUTO 00000KT 3SM BR CLR 02/02 A3003 RMK AO2 T00230023
KSCD 150715Z AUTO 00000KT 10SM CLR 03/03 A3002 RMK AO2 T00260026
KSCD 150655Z AUTO 00000KT 10SM CLR 03/03 A3002 RMK AO2 T00290029
KSCD 150635Z AUTO 00000KT 10SM CLR 03/03 A3002 RMK AO2 T00320032
KSCD 150615Z AUTO 00000KT 10SM CLR 04/04 A3001 RMK AO2 T00360036
KSCD 150555Z AUTO 00000KT 10SM CLR 04/04 A3002 RMK AO2 T00400040 10066 20040 401351013
KSCD 150535Z AUTO 00000KT 10SM CLR 04/04 A3002 RMK AO2 T00400040
KSCD 150515Z AUTO 00000KT 10SM CLR 04/04 A3003 RMK AO2 T00420042
KSCD 150455Z AUTO 00000KT 10SM CLR 05/05 A3003 RMK AO2 T00480048
KSCD 150435Z AUTO 00000KT 10SM CLR 04/04 A3004 RMK AO2 T00420042
KSCD 150415Z AUTO 00000KT 10SM CLR 05/05 A3004 RMK AO2 T00510051
KSCD 150355Z AUTO 00000KT 10SM CLR 05/05 A3004 RMK AO2 T00490045
KSCD 150335Z AUTO 00000KT 10SM CLR 06/05 A3003 RMK AO2 T00550051
KSCD 150315Z AUTO 00000KT 10SM CLR 07/06 A3003 RMK AO2 T00660055
KSCD 150255Z AUTO 00000KT 10SM CLR 05/05 A3002 RMK AO2 T00500049
KSCD 150235Z AUTO 00000KT 10SM CLR 06/06 A3002 RMK AO2 T00560056
KSCD 150215Z AUTO 00000KT 10SM CLR 06/05 A3001 RMK AO2 T00590053
KSCD 150155Z AUTO 00000KT 10SM CLR 06/05 A3001 RMK AO2 T00620053
KSCD 150135Z AUTO 00000KT 10SM CLR 06/05 A3001 RMK AO2 T00570050
KSCD 150115Z AUTO 00000KT 10SM CLR 06/06 A3001 RMK AO2 T00560055
KSCD 150055Z AUTO 00000KT 10SM CLR 05/05 A3000 RMK AO2 T00520052
KSCD 150035Z AUTO 00000KT 10SM CLR 05/05 A2999 RMK AO2 T00480047
KSCD 150015Z AUTO 00000KT 10SM CLR 05/04 A2999 RMK AO2 T00490041
KSCD 142355Z AUTO 00000KT 10SM CLR 06/05 A2999 RMK AO2 T00570050 10135 20055
KSCD 142335Z AUTO 00000KT 10SM CLR 06/05 A2998 RMK AO2 T00590046
KSCD 142315Z AUTO 00000KT 10SM CLR 06/05 A2998 RMK AO2 T00630045
KSCD 142255Z AUTO 00000KT 10SM CLR 09/05 A2996 RMK AO2 T00880051
KSCD 142235Z AUTO 00000KT 10SM CLR 11/05 A2997 RMK AO2 T01060052
KSCD 142215Z AUTO 00000KT 10SM CLR 11/05 A2996 RMK AO2 T01110053
KSCD 142155Z AUTO 23003KT 10SM CLR 12/06 A2996 RMK AO2 T01220055
KSCD 142135Z AUTO 26003KT 10SM CLR 12/05 A2996 RMK AO2 T01230054
KSCD 142115Z AUTO 25005KT 10SM CLR 13/05 A2996 RMK AO2 T01320051
KSCD 142055Z AUTO 26003KT 10SM CLR 14/05 A2996 RMK AO2 T01350048
KSCD 142035Z AUTO 27004KT 10SM CLR 13/05 A2995 RMK AO2 T01300046
KSCD 142015Z AUTO 26004KT 10SM CLR 13/05 A2996 RMK AO2 T01310046
KSCD 141955Z AUTO 27003KT 10SM CLR 13/05 A2995 RMK AO2 T01310045
KSCD 141935Z AUTO 28004KT 10SM CLR 13/04 A2996 RMK AO2 T01330043
KSCD 141915Z AUTO 00000KT 10SM CLR 13/04 A2995 RMK AO2 T01310038
KSCD 141855Z AUTO 00000KT 10SM CLR 13/04 A2995 RMK AO2 T01300037
KSCD 141835Z AUTO 00000KT 10SM CLR 13/03 A2995 RMK AO2 T01250029
KSCD 141815Z AUTO 00000KT 10SM CLR 12/02 A2996 RMK AO2 T01210024
KSCD 141755Z AUTO 00000KT 10SM CLR 12/03 A2997 RMK AO2 T01180034 10118 21013
KSCD 141735Z AUTO 00000KT 10SM CLR 11/03 A2997 RMK AO2 T01110029
KSCD 141715Z AUTO 00000KT 10SM CLR 11/03 A2998 RMK AO2 T01050032
KSCD 141655Z AUTO 00000KT 10SM CLR 10/03 A2998 RMK AO2 T00980028
KSCD 141635Z AUTO 26003KT 10SM CLR 10/03 A2999 RMK AO2 T00960030
KSCD 141615Z AUTO 26003KT 10SM CLR 09/03 A3000 RMK AO2 T00890027
KSCD 141555Z AUTO 27005KT 10SM CLR 09/03 A3000 RMK AO2 T00860027
KSCD 141535Z AUTO 27007KT 10SM CLR 08/03 A3000 RMK AO2 T00810027
KSCD 141515Z AUTO 26005KT 10SM CLR 08/03 A2999 RMK AO2 T00760030
KSCD 141455Z AUTO 00000KT 10SM CLR 06/03 A2998 RMK AO2 T00550034
KSCD 141435Z AUTO 00000KT 10SM CLR 04/04 A2997 RMK AO2 T00390038
KSCD 141415Z AUTO 00000KT 10SM CLR 02/02 A2996 RMK AO2 T00220021
KSCD 141355Z AUTO 00000KT 10SM CLR 00/00 A2996 RMK AO2 T00000000
KSCD 141335Z AUTO 00000KT 10SM CLR 00/00 A2996 RMK AO2 T10051005
KSCD 141315Z AUTO 00000KT 10SM CLR 00/00 A2995 RMK AO2 T10051005
KSCD 141255Z AUTO 00000KT 10SM CLR M01/M01 A2995 RMK AO2 T10121012
KSCD 141235Z AUTO 00000KT 10SM CLR M01/M01 A2994 RMK AO2 T10071007
KSCD 141215Z AUTO 00000KT 10SM CLR M01/M01 A2994 RMK AO2 T10071007
KSCD 141155Z AUTO 00000KT 10SM CLR 00/00 A2994 RMK AO2 7//// T10011001 10053 21009